createdAt,value
2019-03-21T00:01:26.325Z,101001.98
2019-03-21T00:03:56.034Z,100997.39
2019-03-21T00:06:22.192Z,100991.81
2019-03-21T00:08:48.852Z,100994.91
2019-03-21T00:11:41.393Z,100994.77
2019-03-21T00:14:13.924Z,101002.02
2019-03-21T00:16:40.182Z,101003.58
2019-03-21T00:19:06.479Z,101008.14
2019-03-21T00:21:32.636Z,101008.60
2019-03-21T00:23:58.801Z,101001.58
2019-03-21T00:26:25.928Z,101000.92
2019-03-21T00:28:52.091Z,100998.67
2019-03-21T00:31:18.356Z,100998.79
2019-03-21T00:33:45.065Z,100996.84
2019-03-21T00:36:11.236Z,101000.25
2019-03-21T00:38:37.399Z,100993.73
2019-03-21T00:41:03.592Z,100999.48
2019-03-21T00:43:29.757Z,101000.45
2019-03-21T00:45:55.921Z,100988.67
2019-03-21T00:48:22.103Z,100993.73
2019-03-21T00:50:48.262Z,100991.84
2019-03-21T00:53:14.436Z,100996.25
2019-03-21T00:55:49.972Z,100997.33
2019-03-21T00:58:16.134Z,100996.09
2019-03-21T01:00:45.599Z,100996.73
2019-03-21T01:03:12.695Z,100998.11
2019-03-21T01:05:38.962Z,101001.16
2019-03-21T01:08:05.131Z,100988.11
2019-03-21T01:10:31.340Z,100989.77
2019-03-21T01:12:57.490Z,100984.01
2019-03-21T01:15:23.753Z,100989.58
2019-03-21T01:17:49.951Z,100986.66
2019-03-21T01:20:16.124Z,100978.41
2019-03-21T01:22:42.988Z,100985.94
2019-03-21T01:25:21.897Z,100987.98
2019-03-21T01:27:48.211Z,100987.77
2019-03-21T01:30:16.267Z,100983.77
2019-03-21T01:32:42.472Z,100975.11
2019-03-21T01:35:08.631Z,100977.13
2019-03-21T01:37:34.892Z,100985.63
2019-03-21T01:40:01.189Z,100982.41
2019-03-21T01:42:27.360Z,100977.38
2019-03-21T01:44:53.521Z,100968.77
2019-03-21T01:47:19.712Z,100972.75
2019-03-21T01:49:45.981Z,100974.04
2019-03-21T01:52:12.241Z,100969.39
2019-03-21T01:54:38.437Z,100972.20
2019-03-21T01:57:04.596Z,100971.63
2019-03-21T01:59:30.855Z,100982.19
2019-03-21T02:01:57.055Z,100978.50
2019-03-21T02:04:23.261Z,100987.25
2019-03-21T02:06:49.423Z,100987.21
2019-03-21T02:09:15.612Z,100986.31
2019-03-21T02:11:41.777Z,100981.53
2019-03-21T02:14:08.040Z,100988.09
2019-03-21T02:16:34.236Z,100985.21
2019-03-21T02:19:00.405Z,100985.85
2019-03-21T02:21:26.578Z,100981.81
2019-03-21T02:23:52.982Z,100977.22
2019-03-21T02:26:19.144Z,100980.69
2019-03-21T02:28:45.352Z,100985.18
2019-03-21T02:31:11.551Z,100990.81
2019-03-21T02:33:40.621Z,100986.09
2019-03-21T02:36:14.027Z,100985.38
2019-03-21T02:38:40.217Z,100975.34
2019-03-21T02:41:14.472Z,100983.89
2019-03-21T02:43:40.637Z,100978.95
2019-03-21T02:46:06.842Z,100988.09
2019-03-21T02:48:33.000Z,100991.09
2019-03-21T02:50:59.274Z,101003.42
2019-03-21T02:53:25.459Z,100999.82
2019-03-21T02:55:51.646Z,101004.53
2019-03-21T02:58:17.917Z,101008.75
2019-03-21T03:00:44.909Z,101007.30
2019-03-21T03:03:11.467Z,101018.50
2019-03-21T03:05:38.038Z,101016.37
2019-03-21T03:08:05.447Z,101018.95
2019-03-21T03:10:49.706Z,101017.41
2019-03-21T03:13:15.907Z,101023.09
2019-03-21T03:15:42.492Z,101021.91
2019-03-21T03:18:10.862Z,101017.18
2019-03-21T03:20:37.063Z,101014.70
2019-03-21T03:23:03.214Z,101027.52
2019-03-21T03:25:29.486Z,101029.99
2019-03-21T03:27:59.285Z,101028.16
2019-03-21T03:30:25.542Z,101031.77
2019-03-21T03:32:51.709Z,101028.58
2019-03-21T03:35:17.913Z,101025.48
2019-03-21T03:37:44.474Z,101028.98
2019-03-21T03:40:23.532Z,101027.95
2019-03-21T03:42:49.699Z,101031.16
2019-03-21T03:45:37.376Z,101026.89
2019-03-21T03:47:58.771Z,101031.73
2019-03-21T03:50:24.933Z,101023.98
2019-03-21T03:52:51.134Z,101023.51
2019-03-21T03:55:18.402Z,101015.92
2019-03-21T03:57:45.864Z,101013.63
2019-03-21T04:00:17.928Z,101011.44
2019-03-21T04:02:45.494Z,101008.00
2019-03-21T04:05:12.758Z,101017.73
2019-03-21T04:07:40.270Z,101020.96
2019-03-21T04:10:12.797Z,101019.89
2019-03-21T04:12:39.157Z,101021.62
2019-03-21T04:15:09.057Z,101024.52
2019-03-21T04:17:35.318Z,101024.05
2019-03-21T04:20:01.513Z,101030.45
2019-03-21T04:22:27.675Z,101035.30
2019-03-21T04:24:53.842Z,101039.12
2019-03-21T04:27:20.024Z,101034.92
2019-03-21T04:29:46.216Z,101037.59
2019-03-21T04:32:12.426Z,101048.00
2019-03-21T04:34:38.589Z,101047.53
2019-03-21T04:37:04.787Z,101056.31
2019-03-21T04:39:30.954Z,101060.25
2019-03-21T04:41:57.122Z,101067.26
2019-03-21T04:44:23.315Z,101060.25
2019-03-21T04:46:49.486Z,101070.88
2019-03-21T04:49:15.652Z,101078.87
2019-03-21T04:51:41.850Z,101086.44
2019-03-21T04:54:08.019Z,101085.38
2019-03-21T04:56:34.203Z,101088.30
2019-03-21T04:59:00.402Z,101099.40
2019-03-21T05:01:26.561Z,101104.08
2019-03-21T05:03:52.733Z,101105.44
2019-03-21T05:06:19.316Z,101097.89
2019-03-21T05:08:45.482Z,101107.21
2019-03-21T05:11:11.646Z,101110.34
2019-03-21T05:13:37.839Z,101100.12
2019-03-21T05:16:14.391Z,101096.39
2019-03-21T05:18:44.949Z,101092.04
2019-03-21T05:21:14.713Z,101093.92
2019-03-21T05:23:40.876Z,101085.83
2019-03-21T05:26:07.173Z,101083.73
2019-03-21T05:28:33.343Z,101085.94
2019-03-21T05:31:31.804Z,101094.49
2019-03-21T05:33:58.105Z,101094.95
2019-03-21T05:36:24.434Z,101103.73
2019-03-21T05:38:50.657Z,101106.48
2019-03-21T05:41:16.829Z,101107.33
2019-03-21T05:44:01.952Z,101123.35
2019-03-21T05:46:29.016Z,101121.13
2019-03-21T05:48:55.286Z,101124.50
2019-03-21T05:51:21.475Z,101114.71
2019-03-21T05:53:47.644Z,101119.47
2019-03-21T05:56:13.809Z,101120.16
2019-03-21T05:58:40.013Z,101126.77
2019-03-21T06:01:30.993Z,101131.92
2019-03-21T06:03:57.186Z,101136.80
2019-03-21T06:06:32.844Z,101145.94
2019-03-21T06:15:50.639Z,101152.82
2019-03-21T06:18:44.160Z,101163.72
2019-03-21T06:21:20.272Z,101163.80
2019-03-21T06:23:53.039Z,101169.59
2019-03-21T06:26:22.948Z,101179.85
2019-03-21T06:28:49.123Z,101179.33
2019-03-21T06:31:15.296Z,101171.89
2019-03-21T06:33:41.617Z,101170.12
2019-03-21T06:36:08.663Z,101175.80
2019-03-21T06:38:34.831Z,101182.59
2019-03-21T06:41:01.032Z,101183.78
2019-03-21T06:43:27.196Z,101184.61
2019-03-21T06:45:53.468Z,101189.42
2019-03-21T06:48:19.778Z,101189.77
2019-03-21T06:50:46.044Z,101197.45
2019-03-21T06:53:12.203Z,101201.36
2019-03-21T06:55:38.510Z,101200.36
2019-03-21T06:58:04.672Z,101198.48
2019-03-21T07:00:30.831Z,101200.16
2019-03-21T07:02:57.022Z,101200.88
2019-03-21T07:05:23.184Z,101200.09
2019-03-21T07:07:49.350Z,101210.21
2019-03-21T07:10:15.539Z,101209.91
2019-03-21T07:12:41.711Z,101210.02
2019-03-21T07:15:09.696Z,101199.09
2019-03-21T07:17:35.912Z,101209.01
2019-03-21T07:20:03.980Z,101208.08
2019-03-21T07:22:30.135Z,101193.31
2019-03-21T07:24:56.448Z,101195.58
2019-03-21T07:27:22.681Z,101197.66
2019-03-21T07:29:48.889Z,101200.69
2019-03-21T07:32:15.075Z,101200.81
2019-03-21T07:34:41.237Z,101205.50
2019-03-21T07:37:07.434Z,101196.05
2019-03-21T07:39:33.735Z,101194.27
2019-03-21T07:42:01.223Z,101196.39
2019-03-21T07:44:27.643Z,101195.98
2019-03-21T07:46:53.835Z,101197.03
2019-03-21T07:49:19.993Z,101190.40
2019-03-21T07:51:46.157Z,101189.95
2019-03-21T07:54:12.451Z,101187.02
2019-03-21T07:56:38.604Z,101193.66
2019-03-21T07:59:04.774Z,101194.95
2019-03-21T08:01:30.976Z,101204.13
2019-03-21T08:03:57.134Z,101213.41
2019-03-21T08:06:23.392Z,101202.36
2019-03-21T08:08:50.102Z,101210.70
2019-03-21T08:11:16.256Z,101215.59
2019-03-21T08:13:42.525Z,101199.60
2019-03-21T08:16:08.821Z,101198.94
2019-03-21T08:18:35.098Z,101192.52
2019-03-21T08:21:01.268Z,101187.68
2019-03-21T08:23:27.463Z,101193.41
2019-03-21T08:25:53.610Z,101189.27
2019-03-21T08:28:19.765Z,101189.02
2019-03-21T08:31:07.906Z,101180.97
2019-03-21T08:33:34.163Z,101181.11
2019-03-21T08:36:00.320Z,101174.05
2019-03-21T08:38:26.554Z,101176.88
2019-03-21T08:40:52.832Z,101172.27
2019-03-21T08:43:19.091Z,101169.58
2019-03-21T08:45:45.395Z,101175.87
2019-03-21T08:48:11.547Z,101172.48
2019-03-21T08:50:37.810Z,101175.15
2019-03-21T08:53:04.101Z,101174.25
2019-03-21T08:55:30.666Z,101176.54
2019-03-21T08:57:56.868Z,101172.94
2019-03-21T09:00:33.730Z,101175.19
2019-03-21T09:02:51.243Z,101171.61
2019-03-21T09:05:17.407Z,101184.35
2019-03-21T09:07:43.620Z,101181.17
2019-03-21T09:10:10.179Z,101180.70
2019-03-21T09:12:36.334Z,101173.89
2019-03-21T09:15:05.225Z,101166.89
2019-03-21T09:17:31.490Z,101178.42
2019-03-21T09:19:57.649Z,101183.48
2019-03-21T09:22:23.872Z,101176.02
2019-03-21T09:24:50.134Z,101165.87
2019-03-21T09:27:16.293Z,101160.07
2019-03-21T09:29:53.170Z,101145.27
2019-03-21T09:32:11.671Z,101143.59
2019-03-21T09:34:37.879Z,101146.73
2019-03-21T09:37:04.264Z,101157.39
2019-03-21T09:39:30.530Z,101152.17
2019-03-21T09:41:56.689Z,101139.78
2019-03-21T09:44:22.586Z,101145.80
2019-03-21T09:46:51.074Z,101151.45
2019-03-21T09:49:16.910Z,101137.31
2019-03-21T09:51:43.213Z,101139.55
2019-03-21T09:54:10.082Z,101142.95
2019-03-21T09:56:36.339Z,101139.80
2019-03-21T09:59:02.609Z,101143.05
2019-03-21T10:01:28.802Z,101140.95
2019-03-21T10:03:54.962Z,101129.58
2019-03-21T10:06:21.245Z,101130.02
2019-03-21T10:08:47.407Z,101122.94
2019-03-21T10:11:13.566Z,101124.48
2019-03-21T10:13:39.759Z,101123.51
2019-03-21T10:16:05.917Z,101106.70
2019-03-21T10:18:32.085Z,101104.70
2019-03-21T10:20:58.293Z,101099.13
2019-03-21T10:23:24.436Z,101096.41
2019-03-21T10:25:50.696Z,101101.61
2019-03-21T10:28:16.875Z,101088.92
2019-03-21T10:30:43.034Z,101091.22
2019-03-21T10:33:11.309Z,101100.79
2019-03-21T10:35:37.512Z,101095.59
2019-03-21T10:38:04.508Z,101099.23
2019-03-21T10:40:30.716Z,101105.25
2019-03-21T10:42:56.914Z,101101.78
2019-03-21T10:45:23.075Z,101087.08
2019-03-21T10:47:49.234Z,101074.87
2019-03-21T10:50:19.037Z,101074.13
2019-03-21T10:52:45.312Z,101067.14
2019-03-21T10:55:11.474Z,101074.00
2019-03-21T10:57:37.789Z,101089.48
2019-03-21T11:00:07.160Z,101090.78
2019-03-21T11:02:33.418Z,101088.94
2019-03-21T11:04:59.609Z,101093.61
2019-03-21T11:07:25.878Z,101084.73
2019-03-21T11:09:52.407Z,101078.30
2019-03-21T11:12:18.605Z,101078.26
2019-03-21T11:14:44.766Z,101081.21
2019-03-21T11:17:10.971Z,101077.74
2019-03-21T11:19:37.189Z,101081.53
2019-03-21T11:22:06.617Z,101074.61
2019-03-21T11:24:31.515Z,101074.95
2019-03-21T11:26:57.711Z,101072.38
2019-03-21T11:29:23.977Z,101077.80
2019-03-21T11:31:50.138Z,101068.41
2019-03-21T11:34:16.329Z,101067.48
2019-03-21T11:36:42.498Z,101066.17
2019-03-21T11:39:08.650Z,101061.80
2019-03-21T11:41:34.916Z,101061.35
2019-03-21T11:44:01.071Z,101067.32
2019-03-21T11:46:27.228Z,101073.88
2019-03-21T11:48:53.430Z,101053.03
2019-03-21T11:51:19.581Z,101048.77
2019-03-21T11:53:45.742Z,101055.31
2019-03-21T11:56:13.168Z,101051.91
2019-03-21T11:58:39.708Z,101052.30
2019-03-21T12:01:05.887Z,101041.98
2019-03-21T12:03:32.185Z,101032.32
2019-03-21T12:05:58.350Z,101030.12
2019-03-21T12:08:24.611Z,101026.41
2019-03-21T12:10:50.927Z,101025.38
2019-03-21T12:13:24.126Z,101017.05
2019-03-21T12:15:50.270Z,101017.63
2019-03-21T12:18:16.463Z,101007.02
2019-03-21T12:20:42.621Z,101006.54
2019-03-21T12:23:08.889Z,101002.06
2019-03-21T12:25:35.075Z,100995.34
2019-03-21T12:28:01.750Z,100991.06
2019-03-21T12:30:33.750Z,100986.31
2019-03-21T12:32:59.953Z,101009.26
2019-03-21T12:35:26.110Z,101013.72
2019-03-21T12:37:52.384Z,101016.37
2019-03-21T12:40:18.588Z,101015.73
2019-03-21T12:42:44.828Z,101010.03
2019-03-21T12:45:12.791Z,101002.42
2019-03-21T12:47:38.978Z,101001.56
2019-03-21T12:50:06.838Z,101002.66
2019-03-21T12:52:41.401Z,101006.74
2019-03-21T12:55:01.222Z,100993.22
2019-03-21T12:57:27.473Z,100991.16
2019-03-21T12:59:53.734Z,100990.61
2019-03-21T13:02:31.881Z,100981.19
2019-03-21T13:04:48.203Z,100988.53
2019-03-21T13:07:14.831Z,100984.17
2019-03-21T13:09:41.553Z,100981.47
2019-03-21T13:12:07.816Z,100981.72
2019-03-21T13:14:33.971Z,100974.54
2019-03-21T13:17:00.169Z,100978.17
2019-03-21T13:19:26.331Z,100974.31
2019-03-21T13:21:52.589Z,100974.28
2019-03-21T13:24:19.640Z,100976.84
2019-03-21T13:26:46.038Z,100976.19
2019-03-21T13:29:12.191Z,100972.44
2019-03-21T13:31:38.771Z,100965.28
2019-03-21T13:34:05.148Z,100968.63
2019-03-21T13:36:31.312Z,100967.42
2019-03-21T13:38:57.674Z,100962.37
2019-03-21T13:41:23.950Z,100961.02
2019-03-21T13:43:51.032Z,100963.50
2019-03-21T13:46:17.225Z,100953.91
2019-03-21T13:48:43.398Z,100953.95
2019-03-21T13:51:09.660Z,100942.39
2019-03-21T13:53:35.861Z,100942.56
2019-03-21T13:56:02.122Z,100943.84
2019-03-21T13:58:28.280Z,100944.78
2019-03-21T14:00:54.487Z,100956.91
2019-03-21T14:03:25.224Z,100956.33
2019-03-21T14:05:48.831Z,100952.80
2019-03-21T14:08:15.024Z,100956.33
2019-03-21T14:10:41.539Z,100949.51
2019-03-21T14:13:07.827Z,100952.52
2019-03-21T14:15:34.018Z,100954.16
2019-03-21T14:18:00.185Z,100957.83
2019-03-21T14:20:26.448Z,100961.88
2019-03-21T14:22:52.648Z,100954.81
2019-03-21T14:25:18.904Z,100946.34
2019-03-21T14:27:45.168Z,100939.23
2019-03-21T14:30:14.057Z,100949.73
2019-03-21T14:32:40.230Z,100961.80
2019-03-21T14:35:06.782Z,100956.38
2019-03-21T14:37:32.989Z,100953.00
2019-03-21T14:39:59.145Z,100960.05
2019-03-21T14:42:25.330Z,100942.19
2019-03-21T14:44:51.579Z,100943.55
2019-03-21T14:47:17.743Z,100937.58
2019-03-21T14:49:43.904Z,100940.67
2019-03-21T14:52:10.093Z,100940.27
2019-03-21T14:54:36.351Z,100934.23
2019-03-21T14:57:02.506Z,100934.93
2019-03-21T14:59:28.699Z,100934.80
2019-03-21T15:01:54.856Z,100937.75
2019-03-21T15:04:21.009Z,100935.70
2019-03-21T15:06:47.190Z,100929.48
2019-03-21T15:09:13.452Z,100924.86
2019-03-21T15:11:39.724Z,100924.50
2019-03-21T15:14:06.004Z,100933.72
2019-03-21T15:16:32.179Z,100934.81
2019-03-21T15:18:58.424Z,100933.30
2019-03-21T15:21:24.675Z,100936.05
2019-03-21T15:23:59.380Z,100941.14
2019-03-21T15:26:18.903Z,100938.80
2019-03-21T15:28:45.089Z,100932.24
2019-03-21T15:31:11.255Z,100933.84
2019-03-21T15:33:37.514Z,100936.86
2019-03-21T15:36:03.804Z,100941.20
2019-03-21T15:38:29.964Z,100936.91
2019-03-21T15:40:56.129Z,100947.16
2019-03-21T15:43:22.421Z,100941.45
2019-03-21T15:45:49.636Z,100943.80
2019-03-21T15:48:15.777Z,100941.47
2019-03-21T15:50:41.971Z,100941.47
2019-03-21T15:53:08.131Z,100939.84
2019-03-21T15:55:34.297Z,100941.09
2019-03-21T15:58:00.507Z,100948.25
2019-03-21T16:00:35.281Z,100947.72
2019-03-21T16:03:02.373Z,100949.92
2019-03-21T16:05:28.632Z,100953.65
2019-03-21T16:07:54.787Z,100964.48
2019-03-21T16:10:21.102Z,100957.23
2019-03-21T16:12:47.268Z,100952.75
2019-03-21T16:15:13.434Z,100952.69
2019-03-21T16:17:39.749Z,100957.81
2019-03-21T16:20:07.200Z,100956.86
2019-03-21T16:22:33.367Z,100956.30
2019-03-21T16:24:59.575Z,100959.88
2019-03-21T16:27:25.729Z,100960.81
2019-03-21T16:29:51.899Z,100962.13
2019-03-21T16:32:18.084Z,100959.39
2019-03-21T16:34:44.345Z,100964.11
2019-03-21T16:37:11.998Z,100960.88
2019-03-21T16:39:38.502Z,100965.27
2019-03-21T16:42:04.665Z,100964.37
2019-03-21T16:44:30.824Z,100967.05
2019-03-21T16:46:57.069Z,100971.73
2019-03-21T16:49:23.227Z,100964.23
2019-03-21T16:51:49.446Z,100965.50
2019-03-21T16:54:17.453Z,100969.82
2019-03-21T16:56:43.730Z,100966.06
2019-03-21T16:59:09.896Z,100971.09
2019-03-21T17:01:36.189Z,100977.53
2019-03-21T17:04:02.362Z,100973.34
2019-03-21T17:06:28.524Z,100977.55
2019-03-21T17:08:54.704Z,100978.09
2019-03-21T17:11:20.871Z,100975.59
2019-03-21T17:13:47.130Z,100970.03
2019-03-21T17:16:13.354Z,100976.59
2019-03-21T17:18:39.604Z,100974.75
2019-03-21T17:21:05.845Z,100985.27
2019-03-21T17:23:32.047Z,100977.73
2019-03-21T17:25:58.201Z,100979.09
2019-03-21T17:28:24.374Z,100981.55
2019-03-21T17:30:50.686Z,100981.67
2019-03-21T17:33:16.876Z,100989.05
2019-03-21T17:35:43.053Z,100989.23
2019-03-21T17:38:09.244Z,100989.42
2019-03-21T17:40:35.417Z,100988.52
2019-03-21T17:43:01.691Z,100993.83
2019-03-21T17:45:27.988Z,100993.66
2019-03-21T17:47:54.215Z,100999.93
2019-03-21T17:50:20.371Z,100995.56
2019-03-21T17:52:46.578Z,100997.63
2019-03-21T17:55:12.833Z,100995.66
2019-03-21T17:57:39.015Z,100992.99
2019-03-21T18:00:14.820Z,100993.69
2019-03-21T18:02:41.106Z,100995.41
2019-03-21T18:05:07.290Z,100992.15
2019-03-21T18:07:33.499Z,100998.48
2019-03-21T18:09:59.667Z,100996.66
2019-03-21T18:12:25.863Z,100999.27
2019-03-21T18:14:52.055Z,101005.35
2019-03-21T18:17:18.364Z,101001.12
2019-03-21T18:19:44.623Z,101003.76
2019-03-21T18:22:10.938Z,101004.16
2019-03-21T18:24:37.109Z,101004.04
2019-03-21T18:27:03.267Z,101009.47
2019-03-21T18:29:29.490Z,101010.77
2019-03-21T18:31:55.741Z,101021.79
2019-03-21T18:34:22.001Z,101021.13
2019-03-21T18:36:48.305Z,101032.73
2019-03-21T18:39:14.556Z,101030.77
2019-03-21T18:41:40.707Z,101035.45
2019-03-21T18:44:07.005Z,101032.38
2019-03-21T18:46:33.169Z,101025.66
2019-03-21T18:48:59.599Z,101030.19
2019-03-21T18:51:25.785Z,101026.31
2019-03-21T18:53:51.948Z,101026.98
2019-03-21T18:56:18.107Z,101019.41
2019-03-21T18:58:44.321Z,101019.68
2019-03-21T19:01:10.588Z,101020.48
2019-03-21T19:03:36.754Z,101015.66
2019-03-21T19:06:03.340Z,101020.01
2019-03-21T19:08:29.497Z,101025.26
2019-03-21T19:10:55.768Z,101013.89
2019-03-21T19:13:22.073Z,101013.13
2019-03-21T19:15:48.247Z,101017.45
2019-03-21T19:18:14.416Z,101018.08
2019-03-21T19:20:40.629Z,101020.03
2019-03-21T19:23:07.774Z,101023.96
2019-03-21T19:25:33.943Z,101021.57
2019-03-21T19:28:00.169Z,101021.58
2019-03-21T19:30:26.325Z,101031.11
2019-03-21T19:32:52.499Z,101028.78
2019-03-21T19:35:19.394Z,101030.52
2019-03-21T19:37:45.659Z,101033.73
2019-03-21T19:40:17.742Z,101023.12
2019-03-21T19:42:43.935Z,101028.89
2019-03-21T19:45:14.555Z,101029.26
2019-03-21T19:47:40.717Z,101028.27
2019-03-21T19:50:09.367Z,101030.08
2019-03-21T19:52:35.524Z,101038.44
2019-03-21T19:55:01.702Z,101024.58
2019-03-21T19:57:28.020Z,101033.41
2019-03-21T19:59:54.188Z,101026.23
2019-03-21T20:02:20.365Z,101032.80
2019-03-21T20:04:48.345Z,101037.16
2019-03-21T20:07:14.524Z,101030.05
2019-03-21T20:09:40.791Z,101030.94
2019-03-21T20:12:07.307Z,101029.15
2019-03-21T20:14:33.468Z,101034.59
2019-03-21T20:16:59.738Z,101024.30
2019-03-21T20:19:25.949Z,101025.97
2019-03-21T20:21:52.219Z,101025.34
2019-03-21T20:24:18.391Z,101021.36
2019-03-21T20:26:44.590Z,101024.01
2019-03-21T20:29:10.746Z,101022.04
2019-03-21T20:31:36.908Z,101028.53
2019-03-21T20:34:03.304Z,101020.19
2019-03-21T20:36:29.481Z,101019.86
2019-03-21T20:38:55.738Z,101018.06
2019-03-21T20:41:21.946Z,101016.17
2019-03-21T20:43:48.116Z,101016.31
2019-03-21T20:46:14.380Z,101023.70
2019-03-21T20:48:40.282Z,101018.20
2019-03-21T20:51:06.461Z,101026.44
2019-03-21T20:53:32.617Z,101021.55
2019-03-21T20:55:58.819Z,101016.59
2019-03-21T20:58:24.991Z,101019.08
2019-03-21T21:00:51.155Z,101017.08
2019-03-21T21:03:17.362Z,101019.70
2019-03-21T21:05:43.532Z,101013.73
2019-03-21T21:08:09.803Z,101020.83
2019-03-21T21:10:36.012Z,101027.09
2019-03-21T21:13:02.288Z,101026.25
2019-03-21T21:15:28.444Z,101025.58
2019-03-21T21:17:54.745Z,101020.73
2019-03-21T21:20:21.018Z,101019.23
2019-03-21T21:22:47.185Z,101015.48
2019-03-21T21:25:13.390Z,101015.78
2019-03-21T21:27:48.638Z,101013.84
2019-03-21T21:30:11.220Z,101011.30
2019-03-21T21:32:37.416Z,101021.98
2019-03-21T21:35:06.292Z,101021.31
2019-03-21T21:37:32.446Z,101020.78
2019-03-21T21:39:58.711Z,101014.19
2019-03-21T21:42:24.915Z,101014.59
2019-03-21T21:44:51.072Z,101019.98
2019-03-21T21:47:17.284Z,101022.75
2019-03-21T21:49:43.456Z,101015.91
2019-03-21T21:52:09.714Z,101014.42
2019-03-21T21:54:35.918Z,101012.34
2019-03-21T21:57:02.171Z,101008.27
2019-03-21T21:59:28.382Z,101012.03
2019-03-21T22:01:54.645Z,101006.13
2019-03-21T22:04:20.822Z,101007.67
2019-03-21T22:06:46.981Z,101000.16
2019-03-21T22:09:13.201Z,101005.38
2019-03-21T22:11:39.363Z,101003.32
2019-03-21T22:14:05.622Z,101010.33
2019-03-21T22:16:31.824Z,101011.98
2019-03-21T22:18:57.993Z,101016.25
2019-03-21T22:21:24.169Z,101013.28
2019-03-21T22:23:50.374Z,101017.39
2019-03-21T22:26:16.643Z,101012.52
2019-03-21T22:28:42.810Z,101007.32
2019-03-21T22:31:09.018Z,101009.72
2019-03-21T22:33:35.181Z,101011.28
2019-03-21T22:36:01.357Z,101007.78
2019-03-21T22:38:27.557Z,101007.98
2019-03-21T22:40:53.723Z,101007.06
2019-03-21T22:43:19.991Z,101008.46
2019-03-21T22:45:46.192Z,101006.78
2019-03-21T22:48:12.364Z,101006.58
2019-03-21T22:50:38.645Z,100997.73
2019-03-21T22:53:05.829Z,101003.58
2019-03-21T22:55:32.095Z,101007.51
2019-03-21T22:57:58.273Z,101007.76
2019-03-21T23:03:01.896Z,101006.38
2019-03-21T23:05:28.166Z,101012.23
2019-03-21T23:07:54.401Z,101011.06
2019-03-21T23:10:20.572Z,101010.80
2019-03-21T23:12:46.742Z,101018.53
2019-03-21T23:15:13.056Z,101008.83
2019-03-21T23:17:39.323Z,101017.69
2019-03-21T23:20:08.185Z,101017.72
2019-03-21T23:22:34.529Z,101016.54
2019-03-21T23:25:00.684Z,101017.41
2019-03-21T23:27:26.955Z,101019.64
2019-03-21T23:29:53.210Z,101012.92
2019-03-21T23:32:19.524Z,101014.33
2019-03-21T23:34:45.697Z,101017.91
2019-03-21T23:37:11.992Z,101017.08
2019-03-21T23:39:38.158Z,101019.63
2019-03-21T23:42:04.323Z,101012.17
2019-03-21T23:44:30.522Z,101013.61
2019-03-21T23:46:56.686Z,101014.75
2019-03-21T23:49:22.862Z,101019.05
2019-03-21T23:51:49.057Z,101023.45
2019-03-21T23:54:15.270Z,101021.98
2019-03-21T23:56:41.543Z,101018.53
2019-03-21T23:59:07.744Z,101019.38
